Time;durP1;ratioP1;P1;durP2;ratioP2;P2;SDS_P1;SDS_P2;PMS_P1;PMS_P2;Temp;Humidity;BMP_temperature;BMP_pressure;BME280_temperature;BME280_humidity;BME280_pressure;Samples;Min_cycle;Max_cycle;Signal;HPM_P1;HPM_P2
2023/07/19 00:01:37;;;;;;;8.63;4.10;;;25.90;63.80;;;;;;5054984;28;20044;-65
2023/07/19 00:04:03;;;;;;;6.93;4.35;;;25.90;63.90;;;;;;5054925;28;20033;-66
2023/07/19 00:06:29;;;;;;;8.02;4.63;;;25.90;64.00;;;;;;5053946;28;20041;-65
2023/07/19 00:08:55;;;;;;;8.00;4.90;;;25.90;64.40;;;;;;5054867;28;20112;-65
2023/07/19 00:11:21;;;;;;;9.68;5.03;;;26.00;64.90;;;;;;5054869;28;20078;-65
2023/07/19 00:13:47;;;;;;;7.80;5.13;;;26.00;65.00;;;;;;5054873;28;20029;-65
2023/07/19 00:16:13;;;;;;;7.00;4.70;;;26.10;64.70;;;;;;5054665;28;20411;-66
2023/07/19 00:18:39;;;;;;;7.43;4.68;;;26.10;64.70;;;;;;5054777;28;20029;-65
2023/07/19 00:21:08;;;;;;;8.02;5.15;;;26.00;64.90;;;;;;5055052;28;20346;-65
2023/07/19 00:23:35;;;;;;;8.30;4.80;;;25.90;64.90;;;;;;5054677;28;20029;-66
2023/07/19 00:26:00;;;;;;;9.93;5.25;;;25.90;65.10;;;;;;5054959;28;20017;-65
2023/07/19 00:28:29;;;;;;;8.10;5.10;;;25.90;65.10;;;;;;5054708;28;20028;-66
2023/07/19 00:31:04;;;;;;;9.23;5.05;;;25.80;65.30;;;;;;5054676;28;20052;-66
2023/07/19 00:33:30;;;;;;;8.07;4.57;;;25.70;65.30;;;;;;5054944;28;20036;-66
2023/07/19 00:35:56;;;;;;;6.88;4.70;;;25.70;65.20;;;;;;5054472;28;20044;-65
2023/07/19 00:38:22;;;;;;;7.45;4.30;;;25.70;65.20;;;;;;5054641;28;20439;-66
2023/07/19 00:40:51;;;;;;;6.40;4.60;;;25.60;65.30;;;;;;5054535;28;20025;-66
2023/07/19 00:43:17;;;;;;;8.90;5.15;;;25.60;65.60;;;;;;5057496;28;20052;-65
2023/07/19 00:45:53;;;;;;;12.98;5.60;;;25.70;66.20;;;;;;5058541;28;20359;-65
2023/07/19 00:48:19;;;;;;;9.73;5.22;;;25.80;66.10;;;;;;5058625;28;20025;-65
2023/07/19 00:50:48;;;;;;;9.38;4.85;;;25.90;66.00;;;;;;5058205;28;20025;-66
2023/07/19 00:53:15;;;;;;;8.68;4.80;;;25.80;65.90;;;;;;5058183;28;20033;-66
2023/07/19 00:55:41;;;;;;;9.23;4.72;;;25.80;65.90;;;;;;5058252;28;20025;-65
2023/07/19 00:58:08;;;;;;;8.98;4.82;;;25.80;65.90;;;;;;5058343;28;20051;-66
2023/07/19 01:00:33;;;;;;;6.40;4.45;;;25.70;65.90;;;;;;5058303;28;20052;-65
2023/07/19 01:03:00;;;;;;;7.15;4.80;;;25.60;65.90;;;;;;5058563;28;20427;-65
2023/07/19 01:05:27;;;;;;;7.75;4.50;;;25.60;66.20;;;;;;5056602;28;20052;-66
2023/07/19 01:07:53;;;;;;;7.45;4.80;;;25.70;66.10;;;;;;5058308;28;20056;-66
2023/07/19 01:10:20;;;;;;;6.90;4.75;;;25.60;66.20;;;;;;5056920;28;20427;-66
2023/07/19 01:13:08;;;;;;;7.22;4.75;;;25.60;66.10;;;;;;5057825;28;20029;-65
2023/07/19 01:15:34;;;;;;;8.95;4.95;;;25.60;66.80;;;;;;5057901;28;20033;-66
2023/07/19 01:18:00;;;;;;;9.45;5.38;;;25.50;66.20;;;;;;5057726;28;20036;-66
2023/07/19 01:20:26;;;;;;;10.00;5.90;;;25.40;66.60;;;;;;5057898;28;20025;-66
2023/07/19 01:22:54;;;;;;;10.13;5.82;;;25.30;67.00;;;;;;5056650;28;20052;-65
2023/07/19 01:25:21;;;;;;;10.32;5.22;;;25.30;67.30;;;;;;5057470;28;20029;-65
2023/07/19 01:27:46;;;;;;;6.75;4.78;;;25.20;67.60;;;;;;5057556;28;20462;-65
2023/07/19 01:30:13;;;;;;;11.95;5.97;;;25.10;67.90;;;;;;5058065;28;20021;-65
2023/07/19 01:32:39;;;;;;;10.93;5.95;;;25.20;68.10;;;;;;5057777;28;20100;-65
2023/07/19 01:35:05;;;;;;;9.27;5.82;;;25.20;67.80;;;;;;5057886;28;20544;-65
2023/07/19 01:37:31;;;;;;;8.55;5.75;;;25.10;67.50;;;;;;5057282;28;20029;-65
2023/07/19 01:39:57;;;;;;;9.90;5.13;;;25.20;67.50;;;;;;5057359;28;20021;-66
2023/07/19 01:42:26;;;;;;;8.57;5.57;;;25.20;67.40;;;;;;5057295;28;20091;-65
2023/07/19 01:44:53;;;;;;;9.70;6.47;;;25.10;67.30;;;;;;5057116;28;20029;-65
2023/07/19 01:47:19;;;;;;;9.88;5.57;;;25.10;67.20;;;;;;5057676;28;20025;-66
2023/07/19 01:49:45;;;;;;;9.13;5.68;;;25.20;67.10;;;;;;5057187;28;20031;-66
2023/07/19 01:52:11;;;;;;;8.85;5.20;;;25.10;67.00;;;;;;5057075;28;20036;-65
2023/07/19 01:54:39;;;;;;;9.48;5.50;;;25.10;67.00;;;;;;5056949;28;20013;-65
2023/07/19 01:57:05;;;;;;;7.75;5.32;;;25.10;67.10;;;;;;5057393;28;20029;-65
2023/07/19 01:59:35;;;;;;;8.18;5.47;;;25.10;67.10;;;;;;5057203;28;20464;-66
2023/07/19 02:02:01;;;;;;;9.77;5.85;;;25.20;67.70;;;;;;5057367;28;20128;-65
2023/07/19 02:04:27;;;;;;;9.48;5.70;;;25.40;67.60;;;;;;5057461;28;20021;-65
2023/07/19 02:06:53;;;;;;;9.05;5.10;;;25.40;67.30;;;;;;5056462;28;20107;-65
2023/07/19 02:09:19;;;;;;;10.45;5.18;;;25.40;67.20;;;;;;5056822;28;20072;-65
2023/07/19 02:11:45;;;;;;;7.57;4.82;;;25.40;67.20;;;;;;5056790;28;20048;-65
2023/07/19 02:14:12;;;;;;;8.63;5.20;;;25.30;67.30;;;;;;5056989;28;20076;-65
2023/07/19 02:16:38;;;;;;;8.75;5.22;;;25.20;67.40;;;;;;5055534;28;20025;-65
2023/07/19 02:19:06;;;;;;;8.02;4.85;;;25.20;67.40;;;;;;5056859;28;20033;-65
2023/07/19 02:21:32;;;;;;;7.90;5.00;;;25.00;67.60;;;;;;5057075;28;20025;-66
2023/07/19 02:23:58;;;;;;;8.32;5.30;;;25.00;67.60;;;;;;5056796;28;20099;-67
2023/07/19 02:26:25;;;;;;;8.15;4.78;;;24.90;67.70;;;;;;5056422;28;20472;-65
2023/07/19 02:28:51;;;;;;;10.07;5.55;;;24.90;67.70;;;;;;5056447;28;20056;-65
2023/07/19 02:31:18;;;;;;;9.45;5.45;;;24.90;67.80;;;;;;5056374;28;20040;-64
2023/07/19 02:33:44;;;;;;;7.93;5.45;;;24.90;67.80;;;;;;5056549;28;20035;-64
2023/07/19 02:36:11;;;;;;;9.00;6.15;;;24.90;67.90;;;;;;5056365;28;20025;-65
2023/07/19 02:38:37;;;;;;;9.93;7.07;;;24.90;67.90;;;;;;5056239;28;20025;-65
2023/07/19 02:41:03;;;;;;;10.98;6.75;;;24.90;68.10;;;;;;5056434;28;20063;-65
2023/07/19 02:43:30;;;;;;;11.25;6.22;;;24.80;68.30;;;;;;5056115;28;20021;-65
2023/07/19 02:45:56;;;;;;;9.25;5.88;;;24.70;68.50;;;;;;5056001;28;20025;-65
2023/07/19 02:48:22;;;;;;;11.90;6.90;;;24.60;68.70;;;;;;5056307;28;20021;-65
2023/07/19 02:50:49;;;;;;;9.93;6.50;;;24.70;68.70;;;;;;5056517;28;20114;-65
2023/07/19 02:53:17;;;;;;;11.35;6.63;;;24.70;68.90;;;;;;5055988;28;20028;-66
2023/07/19 02:55:44;;;;;;;9.77;5.78;;;24.60;69.00;;;;;;5055689;28;20443;-65
2023/07/19 02:58:10;;;;;;;8.02;5.97;;;24.60;69.00;;;;;;5056083;28;20073;-65
2023/07/19 03:00:43;;;;;;;12.18;7.00;;;24.60;69.10;;;;;;5056070;28;20450;-65
2023/07/19 03:03:10;;;;;;;12.18;7.10;;;24.50;69.50;;;;;;5055799;28;20036;-65
2023/07/19 03:05:42;;;;;;;10.68;6.72;;;24.50;69.50;;;;;;5055287;28;20076;-64
2023/07/19 03:08:08;;;;;;;9.98;5.65;;;24.40;69.30;;;;;;5055973;28;20029;-67
2023/07/19 03:10:35;;;;;;;9.80;6.30;;;24.50;69.30;;;;;;5055640;28;20029;-65
2023/07/19 03:13:01;;;;;;;8.85;5.72;;;24.50;69.20;;;;;;5055900;28;20053;-65
2023/07/19 03:15:32;;;;;;;10.35;6.38;;;24.50;69.20;;;;;;5055384;28;20016;-65
2023/07/19 03:18:04;;;;;;;9.05;6.43;;;24.50;69.20;;;;;;5055539;28;20108;-66
2023/07/19 03:20:33;;;;;;;9.63;6.40;;;24.50;69.20;;;;;;5054884;28;20021;-65
2023/07/19 03:23:00;;;;;;;8.45;5.88;;;24.50;69.20;;;;;;5055700;28;20052;-65
2023/07/19 03:25:28;;;;;;;8.77;5.30;;;24.50;69.30;;;;;;5055299;28;20104;-64
2023/07/19 03:27:54;;;;;;;11.10;6.47;;;24.40;69.30;;;;;;5055348;28;20035;-65
2023/07/19 03:30:21;;;;;;;10.20;5.90;;;24.50;69.40;;;;;;5054699;28;20021;-65
2023/07/19 03:32:48;;;;;;;10.15;5.60;;;24.50;69.40;;;;;;5055321;28;20060;-65
2023/07/19 03:35:14;;;;;;;9.00;6.32;;;24.50;69.40;;;;;;5055334;28;20025;-67
2023/07/19 03:37:44;;;;;;;10.52;6.28;;;24.40;69.40;;;;;;5054596;28;20422;-65
2023/07/19 03:40:14;;;;;;;8.25;5.63;;;24.40;69.30;;;;;;5054588;28;20021;-65
2023/07/19 03:42:41;;;;;;;9.55;6.00;;;24.40;69.20;;;;;;5055221;28;20071;-65
2023/07/19 03:45:07;;;;;;;12.15;5.90;;;24.40;69.10;;;;;;5054181;28;20041;-67
2023/07/19 03:47:34;;;;;;;9.02;5.85;;;24.40;69.00;;;;;;5055028;28;20439;-65
2023/07/19 03:50:00;;;;;;;11.00;6.05;;;24.50;69.00;;;;;;5055379;28;20028;-65
2023/07/19 03:52:26;;;;;;;10.93;5.65;;;24.40;68.90;;;;;;5055089;28;20454;-67
2023/07/19 03:54:54;;;;;;;10.23;5.60;;;24.50;68.70;;;;;;5055246;28;20025;-66
2023/07/19 03:57:20;;;;;;;8.15;5.18;;;24.50;68.50;;;;;;5054973;28;20419;-67
2023/07/19 03:59:46;;;;;;;9.07;5.38;;;24.50;68.30;;;;;;5054111;28;20063;-67
2023/07/19 04:02:12;;;;;;;9.30;5.30;;;24.50;68.00;;;;;;5055513;28;20029;-66
2023/07/19 04:04:38;;;;;;;10.35;5.35;;;24.60;67.70;;;;;;5054931;28;20017;-66
2023/07/19 04:07:04;;;;;;;9.15;5.13;;;24.60;67.50;;;;;;5054705;28;20049;-67
2023/07/19 04:09:30;;;;;;;12.52;5.78;;;24.60;67.50;;;;;;5054863;28;20112;-67
2023/07/19 04:11:56;;;;;;;9.90;5.60;;;24.70;67.50;;;;;;5054300;28;20101;-67
2023/07/19 04:14:22;;;;;;;12.32;6.18;;;24.60;67.50;;;;;;5055144;28;20040;-67
2023/07/19 04:16:48;;;;;;;9.73;6.00;;;24.70;67.50;;;;;;5055316;28;20021;-67
2023/07/19 04:19:14;;;;;;;11.07;5.75;;;24.80;67.50;;;;;;5059151;28;20029;-67
2023/07/19 04:21:40;;;;;;;10.25;6.65;;;24.80;67.50;;;;;;5058887;28;20017;-67
2023/07/19 04:24:07;;;;;;;12.90;6.55;;;24.90;67.70;;;;;;5059337;28;20075;-67
2023/07/19 04:26:33;;;;;;;14.98;7.13;;;24.90;67.80;;;;;;5058937;28;20033;-67
2023/07/19 04:28:59;;;;;;;12.95;6.38;;;24.90;68.10;;;;;;5058749;28;20086;-67
2023/07/19 04:31:25;;;;;;;10.55;6.35;;;25.00;68.00;;;;;;5058943;28;20028;-67
2023/07/19 04:33:51;;;;;;;10.80;6.28;;;25.00;68.10;;;;;;5058645;28;20033;-66
2023/07/19 04:36:18;;;;;;;9.32;6.40;;;25.10;68.10;;;;;;5058392;28;20159;-67
2023/07/19 04:38:45;;;;;;;9.60;6.05;;;25.10;68.10;;;;;;5058469;28;20104;-66
2023/07/19 04:41:11;;;;;;;11.40;6.03;;;25.20;67.90;;;;;;5058779;28;20021;-67
2023/07/19 04:43:37;;;;;;;8.52;5.57;;;25.40;67.70;;;;;;5058974;28;20100;-67
2023/07/19 04:46:03;;;;;;;11.07;5.40;;;25.50;67.40;;;;;;5057687;28;20021;-67
2023/07/19 04:48:29;;;;;;;8.32;5.50;;;25.90;66.90;;;;;;5058897;28;20052;-67
2023/07/19 04:50:56;;;;;;;8.73;5.82;;;26.20;66.20;;;;;;5057353;28;20029;-67
2023/07/19 04:53:25;;;;;;;8.23;5.60;;;26.70;65.20;;;;;;5057270;28;20025;-67
2023/07/19 04:55:52;;;;;;;10.35;5.60;;;27.10;64.00;;;;;;5058049;28;20040;-67
2023/07/19 04:58:19;;;;;;;7.22;4.72;;;27.60;62.90;;;;;;5058165;28;20067;-67
2023/07/19 05:00:45;;;;;;;8.93;4.57;;;28.00;61.70;;;;;;5058108;28;20017;-67
2023/07/19 05:03:11;;;;;;;11.00;4.70;;;28.40;60.60;;;;;;5058600;28;20108;-67
2023/07/19 05:05:38;;;;;;;8.73;4.80;;;28.90;59.20;;;;;;5057695;28;20049;-67
2023/07/19 05:08:06;;;;;;;8.25;4.40;;;29.30;58.10;;;;;;5057077;28;20054;-67
2023/07/19 05:10:36;;;;;;;6.70;4.20;;;29.80;57.20;;;;;;5057988;28;20021;-67
2023/07/19 05:13:02;;;;;;;11.30;5.10;;;30.30;56.20;;;;;;5057831;28;20028;-67
2023/07/19 05:15:32;;;;;;;6.40;4.30;;;30.90;55.10;;;;;;5057711;28;20040;-67
2023/07/19 05:18:00;;;;;;;9.63;4.63;;;31.40;54.10;;;;;;5058063;28;20029;-67
2023/07/19 05:20:26;;;;;;;9.05;4.55;;;32.00;52.90;;;;;;5056800;28;20127;-67
2023/07/19 05:22:55;;;;;;;7.70;4.25;;;32.50;52.00;;;;;;5058229;28;20095;-66
2023/07/19 05:25:21;;;;;;;6.88;4.35;;;33.00;50.80;;;;;;5057528;28;20025;-67
2023/07/19 05:27:47;;;;;;;9.95;4.68;;;33.60;49.90;;;;;;5057639;28;20025;-65
2023/07/19 05:30:13;;;;;;;9.85;4.80;;;34.10;48.80;;;;;;5057633;28;20456;-66
2023/07/19 05:32:39;;;;;;;14.23;4.93;;;34.70;48.00;;;;;;5057532;28;20468;-64
2023/07/19 05:35:06;;;;;;;11.48;5.10;;;35.10;46.40;;;;;;5057445;28;20035;-63
2023/07/19 05:37:32;;;;;;;14.95;4.85;;;35.40;45.50;;;;;;5057649;28;20072;-63
2023/07/19 05:39:59;;;;;;;11.10;4.82;;;35.80;45.20;;;;;;5056446;28;20526;-63
2023/07/19 05:42:25;;;;;;;9.45;4.70;;;36.20;44.70;;;;;;5057605;28;20035;-63
2023/07/19 05:44:50;;;;;;;9.35;4.80;;;36.60;44.10;;;;;;5057625;28;20092;-63
2023/07/19 05:47:17;;;;;;;9.27;4.82;;;36.90;43.40;;;;;;5057205;28;20067;-63
2023/07/19 05:49:44;;;;;;;9.18;4.60;;;37.40;43.10;;;;;;5057168;28;20017;-64
2023/07/19 05:52:12;;;;;;;8.15;4.78;;;37.90;42.40;;;;;;5057657;28;20043;-64
2023/07/19 05:54:38;;;;;;;9.05;4.78;;;38.20;41.70;;;;;;5057081;28;20017;-63
2023/07/19 05:57:04;;;;;;;7.15;4.28;;;37.90;41.20;;;;;;5057180;28;20033;-64
2023/07/19 05:59:30;;;;;;;8.43;4.68;;;37.80;41.60;;;;;;5057584;28;20100;-64
2023/07/19 06:01:57;;;;;;;8.73;4.43;;;37.80;41.50;;;;;;5057056;28;20025;-64
2023/07/19 06:04:22;;;;;;;7.93;4.47;;;37.20;41.70;;;;;;5056968;28;20025;-64
2023/07/19 06:06:49;;;;;;;6.93;4.32;;;36.50;42.40;;;;;;5056642;28;20061;-64
2023/07/19 06:09:17;;;;;;;8.73;4.80;;;35.80;43.40;;;;;;5057123;28;20036;-64
2023/07/19 06:11:44;;;;;;;9.38;4.70;;;35.80;43.90;;;;;;5056764;28;20032;-63
2023/07/19 06:14:11;;;;;;;6.20;3.90;;;36.30;43.50;;;;;;5057098;28;20025;-64
2023/07/19 06:16:39;;;;;;;8.40;4.60;;;37.00;42.90;;;;;;5057124;28;20029;-65
2023/07/19 06:19:05;;;;;;;11.18;5.70;;;37.80;41.60;;;;;;5056940;28;20107;-64
2023/07/19 06:21:31;;;;;;;8.98;5.60;;;38.20;38.20;;;;;;5056688;28;20025;-64
2023/07/19 06:23:58;;;;;;;8.70;5.20;;;37.80;39.60;;;;;;5056668;28;20017;-64
2023/07/19 06:26:24;;;;;;;8.90;4.82;;;37.80;39.90;;;;;;5055691;28;20435;-64
2023/07/19 06:28:50;;;;;;;5.90;4.55;;;38.00;39.80;;;;;;5056538;28;20447;-61
2023/07/19 06:31:16;;;;;;;10.38;4.88;;;38.50;39.50;;;;;;5056523;28;20075;-62
2023/07/19 06:33:42;;;;;;;8.93;4.75;;;39.10;38.90;;;;;;5056450;28;20021;-62
2023/07/19 06:36:08;;;;;;;8.68;4.70;;;39.80;38.10;;;;;;5056784;28;20043;-63
2023/07/19 06:38:37;;;;;;;9.88;4.47;;;40.40;37.20;;;;;;5056905;28;20103;-62
2023/07/19 06:41:04;;;;;;;10.55;5.50;;;40.40;36.90;;;;;;5055428;28;20070;-63
2023/07/19 06:43:30;;;;;;;7.97;4.60;;;40.40;36.50;;;;;;5055399;28;20443;-63
2023/07/19 06:45:56;;;;;;;8.57;6.15;;;40.70;36.00;;;;;;5056693;28;20029;-63
2023/07/19 06:48:23;;;;;;;12.30;7.40;;;41.20;35.40;;;;;;5056381;28;20040;-65
2023/07/19 06:50:49;;;;;;;10.95;6.60;;;41.10;35.40;;;;;;5056595;28;20104;-65
2023/07/19 06:53:16;;;;;;;12.57;5.88;;;40.30;36.30;;;;;;5055032;28;20028;-65
2023/07/19 06:55:43;;;;;;;8.55;5.05;;;39.50;37.20;;;;;;5055905;28;20040;-64
2023/07/19 06:58:09;;;;;;;8.45;5.15;;;39.00;37.90;;;;;;5055955;28;20021;-65
2023/07/19 07:00:35;;;;;;;6.63;5.00;;;38.60;38.80;;;;;;5056481;28;20039;-66
2023/07/19 07:03:03;;;;;;;8.23;4.85;;;38.30;39.30;;;;;;5056191;28;20082;-65
2023/07/19 07:05:29;;;;;;;9.88;5.00;;;37.90;39.80;;;;;;5054567;28;20029;-66
2023/07/19 07:07:55;;;;;;;6.68;4.90;;;37.50;40.40;;;;;;5056405;28;20052;-66
2023/07/19 07:10:21;;;;;;;7.10;5.00;;;37.30;40.90;;;;;;5055813;28;20099;-66
2023/07/19 07:12:49;;;;;;;7.82;4.80;;;37.00;41.60;;;;;;5056001;28;20106;-66
2023/07/19 07:15:15;;;;;;;7.95;4.60;;;36.90;42.10;;;;;;5055484;28;20078;-66
2023/07/19 07:17:43;;;;;;;8.18;4.93;;;36.70;42.40;;;;;;5056194;28;20033;-65
2023/07/19 07:20:09;;;;;;;8.52;5.13;;;36.60;42.50;;;;;;5055632;28;20017;-66
2023/07/19 07:22:35;;;;;;;9.77;5.30;;;36.60;42.40;;;;;;5055594;28;20028;-66
2023/07/19 07:25:02;;;;;;;10.55;5.53;;;36.50;42.70;;;;;;5056110;28;20033;-66
2023/07/19 07:27:28;;;;;;;8.60;5.55;;;36.40;43.00;;;;;;5055457;28;20112;-66
2023/07/19 07:29:54;;;;;;;8.93;5.57;;;36.30;43.30;;;;;;5055985;28;20398;-66
2023/07/19 07:32:20;;;;;;;9.88;6.00;;;36.30;43.40;;;;;;5055418;28;20020;-66
2023/07/19 07:34:46;;;;;;;9.73;5.88;;;36.30;43.40;;;;;;5055405;28;20032;-66
2023/07/19 07:37:12;;;;;;;9.95;5.65;;;36.30;43.40;;;;;;5055512;28;20025;-66
2023/07/19 07:39:38;;;;;;;10.48;5.97;;;36.10;43.60;;;;;;5055582;28;20064;-66
2023/07/19 07:42:05;;;;;;;10.18;5.93;;;36.00;44.00;;;;;;5055814;28;20113;-66
2023/07/19 07:44:31;;;;;;;8.63;5.53;;;35.80;44.10;;;;;;5055779;28;20049;-66
2023/07/19 07:46:58;;;;;;;9.38;6.15;;;35.70;44.60;;;;;;5055164;28;20029;-66
2023/07/19 07:49:24;;;;;;;9.02;5.57;;;35.80;44.70;;;;;;5055475;28;20055;-66
2023/07/19 07:51:50;;;;;;;11.05;6.28;;;35.70;44.80;;;;;;5055019;28;20061;-66
2023/07/19 07:54:16;;;;;;;8.68;5.70;;;35.70;45.20;;;;;;5055836;28;20028;-66
2023/07/19 07:56:42;;;;;;;8.88;6.10;;;35.70;45.20;;;;;;5054970;28;20033;-66
2023/07/19 07:59:07;;;;;;;10.93;6.85;;;35.70;45.10;;;;;;5055102;28;20013;-65
2023/07/19 08:01:34;;;;;;;11.90;7.05;;;35.70;45.10;;;;;;5055053;28;20021;-65
2023/07/19 08:04:01;;;;;;;16.45;7.63;;;35.60;45.30;;;;;;5055535;28;20017;-65
2023/07/19 08:06:27;;;;;;;11.65;7.15;;;35.50;45.40;;;;;;5054866;28;20180;-65
2023/07/19 08:08:54;;;;;;;14.63;7.63;;;35.20;45.60;;;;;;5055515;28;20095;-66
2023/07/19 08:11:21;;;;;;;10.57;7.40;;;35.00;46.10;;;;;;5055210;28;20028;-66
2023/07/19 08:13:48;;;;;;;10.10;6.85;;;35.00;46.70;;;;;;5055148;28;20025;-66
2023/07/19 08:16:15;;;;;;;11.07;7.72;;;35.20;46.80;;;;;;5054798;28;20071;-66
2023/07/19 08:18:41;;;;;;;11.23;7.20;;;35.40;46.60;;;;;;5053870;28;20021;-66
2023/07/19 08:21:07;;;;;;;12.27;6.90;;;35.30;46.50;;;;;;5054897;28;20031;-66
2023/07/19 08:23:33;;;;;;;11.40;6.95;;;35.30;46.80;;;;;;5053810;28;20032;-66
2023/07/19 08:26:00;;;;;;;12.38;7.93;;;35.30;46.80;;;;;;5054721;28;20103;-66
2023/07/19 08:28:27;;;;;;;10.15;6.80;;;35.40;46.90;;;;;;5054738;28;20401;-66
2023/07/19 08:30:54;;;;;;;11.98;6.80;;;35.40;47.00;;;;;;5054813;28;20021;-66
2023/07/19 08:33:22;;;;;;;10.88;7.80;;;35.50;46.90;;;;;;5054996;28;20032;-66
2023/07/19 08:35:51;;;;;;;9.68;6.75;;;35.60;46.90;;;;;;5054443;28;20047;-66
2023/07/19 08:38:18;;;;;;;15.82;7.70;;;35.60;46.90;;;;;;5054700;28;20021;-62
2023/07/19 08:40:55;;;;;;;11.25;7.03;;;35.70;46.70;;;;;;5055238;28;20474;-63
2023/07/19 08:43:25;;;;;;;10.48;6.70;;;35.90;46.60;;;;;;5054741;28;20013;-64
2023/07/19 08:46:41;;;;;;;13.70;9.18;;;36.00;46.30;;;;;;5054878;28;20025;-63
2023/07/19 08:49:48;;;;;;;13.40;8.57;;;36.10;45.80;;;;;;5054323;28;20021;-63
2023/07/19 08:52:22;;;;;;;13.05;8.57;;;35.70;45.60;;;;;;5054437;28;20440;-62
2023/07/19 08:54:50;;;;;;;13.48;8.38;;;35.40;46.10;;;;;;5054687;28;20079;-63
2023/07/19 08:57:16;;;;;;;10.98;7.53;;;35.30;46.20;;;;;;5050763;28;20041;-63
2023/07/19 08:59:43;;;;;;;11.05;8.35;;;35.20;46.30;;;;;;5054205;28;20400;-64
2023/07/19 09:02:09;;;;;;;11.00;6.65;;;35.20;46.10;;;;;;5054504;28;20354;-64
2023/07/19 09:04:39;;;;;;;11.68;7.50;;;35.30;46.20;;;;;;5057703;28;20075;-64
2023/07/19 09:07:05;;;;;;;11.20;6.90;;;35.40;46.10;;;;;;5057906;28;20045;-62
2023/07/19 09:09:33;;;;;;;11.82;6.63;;;35.40;46.30;;;;;;5057175;28;20020;-62
2023/07/19 09:11:59;;;;;;;12.68;7.55;;;35.50;46.40;;;;;;5058233;28;20052;-62
2023/07/19 09:14:36;;;;;;;14.35;8.23;;;35.50;46.40;;;;;;5058264;28;20350;-62
2023/07/19 09:17:04;;;;;;;11.20;7.47;;;35.60;46.20;;;;;;5057777;28;20020;-62
2023/07/19 09:19:30;;;;;;;13.55;7.18;;;35.60;46.30;;;;;;5057791;28;20013;-62
2023/07/19 09:21:57;;;;;;;11.48;7.07;;;35.80;46.50;;;;;;5058393;28;20154;-62
2023/07/19 09:24:25;;;;;;;9.60;6.97;;;35.90;46.30;;;;;;5057761;28;20033;-63
2023/07/19 09:26:56;;;;;;;10.18;7.68;;;36.00;46.20;;;;;;5057626;28;20112;-62
2023/07/19 09:29:27;;;;;;;10.20;6.82;;;36.20;46.40;;;;;;5057714;28;20021;-62
2023/07/19 09:32:03;;;;;;;9.77;6.82;;;36.30;46.20;;;;;;5057972;28;20082;-62
2023/07/19 09:34:37;;;;;;;13.10;7.70;;;36.40;46.10;;;;;;5058192;28;20028;-62
2023/07/19 09:37:04;;;;;;;8.65;6.63;;;36.50;45.50;;;;;;5057700;28;20040;-62
2023/07/19 09:39:35;;;;;;;10.60;7.15;;;36.40;45.50;;;;;;5056834;28;20021;-62
2023/07/19 09:42:03;;;;;;;10.27;7.80;;;36.40;45.60;;;;;;5058013;28;20143;-62
2023/07/19 09:44:30;;;;;;;9.27;7.30;;;36.40;45.60;;;;;;5057279;28;20056;-63
2023/07/19 09:47:02;;;;;;;10.93;7.05;;;36.40;45.60;;;;;;5057525;28;20407;-63
2023/07/19 09:49:28;;;;;;;12.02;7.32;;;36.50;45.30;;;;;;5057823;28;20049;-62
2023/07/19 09:51:56;;;;;;;10.27;7.30;;;36.40;45.30;;;;;;5057510;28;20044;-63
2023/07/19 09:54:24;;;;;;;13.55;8.75;;;36.40;45.20;;;;;;5057189;28;20021;-63
2023/07/19 09:56:53;;;;;;;10.32;7.85;;;36.30;45.00;;;;;;5056972;28;20099;-62
2023/07/19 09:59:44;;;;;;;13.40;8.00;;;36.20;45.10;;;;;;5057595;28;20347;-62
2023/07/19 10:02:13;;;;;;;13.27;7.63;;;36.20;45.10;;;;;;5041000;28;20029;-62
2023/07/19 10:07:11;;;;;;;11.90;8.10;;;36.40;45.50;;;;;;5056877;28;20374;-63
2023/07/19 10:09:44;;;;;;;10.48;7.32;;;36.50;45.30;;;;;;5056852;28;20446;-63
2023/07/19 10:12:16;;;;;;;9.52;6.65;;;36.60;45.20;;;;;;5055861;28;20040;-62
2023/07/19 10:14:58;;;;;;;10.68;6.95;;;36.60;45.10;;;;;;5057277;28;20426;-62
2023/07/19 10:17:24;;;;;;;12.80;7.22;;;36.60;45.00;;;;;;5056915;28;20407;-62
2023/07/19 10:20:27;;;;;;;11.48;7.32;;;36.60;44.70;;;;;;5056918;28;20450;-62
2023/07/19 10:23:01;;;;;;;10.43;6.67;;;36.50;44.80;;;;;;4976240;28;20158;-62
2023/07/19 10:25:35;;;;;;;12.73;9.73;;;36.50;45.00;;;;;;4975979;28;20345;-63
2023/07/19 10:28:12;;;;;;;15.05;9.88;;;36.40;44.70;;;;;;4960731;28;20081;-62
2023/07/19 10:30:52;;;;;;;14.55;9.32;;;36.20;45.00;;;;;;4975981;28;20135;-62
2023/07/19 10:33:21;;;;;;;13.27;8.93;;;35.90;44.90;;;;;;4976578;28;20065;-62
2023/07/19 10:35:55;;;;;;;11.60;8.07;;;35.70;45.80;;;;;;4959944;28;20126;-62
2023/07/19 10:38:26;;;;;;;11.00;7.53;;;35.50;46.00;;;;;;4943949;28;20487;-62
2023/07/19 10:40:54;;;;;;;11.70;7.78;;;35.40;46.30;;;;;;4975866;28;20043;-62
2023/07/19 10:43:22;;;;;;;10.85;7.25;;;35.40;46.20;;;;;;4975761;28;20035;-62
2023/07/19 10:45:48;;;;;;;11.43;8.57;;;35.40;46.10;;;;;;4975957;28;20448;-62
2023/07/19 10:48:14;;;;;;;14.27;8.63;;;35.40;46.30;;;;;;4975765;28;20122;-62
2023/07/19 10:50:46;;;;;;;12.45;7.80;;;35.40;46.50;;;;;;4975981;28;20110;-62
2023/07/19 10:53:14;;;;;;;10.30;7.10;;;35.40;45.90;;;;;;4976323;28;20045;-62
2023/07/19 10:55:41;;;;;;;12.68;7.35;;;35.40;45.80;;;;;;4975463;28;20064;-62
2023/07/19 10:58:07;;;;;;;11.38;7.13;;;35.40;45.60;;;;;;4975480;28;20042;-62
2023/07/19 11:00:39;;;;;;;12.73;7.40;;;35.50;45.60;;;;;;5052230;28;20116;-63
2023/07/19 11:03:11;;;;;;;10.82;6.80;;;35.50;45.40;;;;;;5056224;28;20033;-63
2023/07/19 11:05:40;;;;;;;10.77;7.60;;;35.50;45.60;;;;;;5055425;28;20044;-62
2023/07/19 11:08:06;;;;;;;11.48;7.78;;;35.50;45.60;;;;;;5054874;28;20389;-62
2023/07/19 11:10:34;;;;;;;10.60;7.90;;;35.40;45.30;;;;;;5055742;28;20044;-63
2023/07/19 11:13:03;;;;;;;12.80;7.65;;;35.20;45.20;;;;;;5056154;28;20450;-62
2023/07/19 11:15:28;;;;;;;12.25;8.27;;;35.10;45.20;;;;;;5055993;28;20088;-62
2023/07/19 11:17:57;;;;;;;9.07;7.25;;;34.90;45.50;;;;;;5055855;28;20208;-62
2023/07/19 11:20:35;;;;;;;15.43;8.75;;;34.90;45.80;;;;;;5055821;28;20017;-62
2023/07/19 11:23:08;;;;;;;14.30;8.50;;;34.70;45.20;;;;;;5055549;28;20025;-62
2023/07/19 11:25:35;;;;;;;16.40;8.35;;;34.50;45.90;;;;;;5054104;28;20470;-63
2023/07/19 11:28:02;;;;;;;14.00;8.65;;;34.50;46.10;;;;;;5055436;28;20064;-63
2023/07/19 11:30:39;;;;;;;11.88;8.10;;;34.50;46.30;;;;;;5055383;28;20556;-62
2023/07/19 11:33:06;;;;;;;11.35;7.22;;;34.50;46.20;;;;;;5055398;28;20540;-62
2023/07/19 11:35:34;;;;;;;16.67;8.50;;;34.50;46.60;;;;;;5055476;28;20466;-63
2023/07/19 11:38:00;;;;;;;9.98;7.28;;;34.50;46.90;;;;;;5055329;28;20024;-62
2023/07/19 11:40:28;;;;;;;13.73;9.05;;;34.50;46.90;;;;;;5055528;28;20071;-62
2023/07/19 11:42:57;;;;;;;12.63;8.30;;;34.60;47.10;;;;;;5055817;28;20069;-62
2023/07/19 11:45:35;;;;;;;12.73;8.23;;;34.70;46.90;;;;;;5054565;28;20013;-62
2023/07/19 11:48:04;;;;;;;12.88;8.43;;;34.70;46.80;;;;;;5055435;28;20021;-62
2023/07/19 11:50:33;;;;;;;13.48;9.13;;;34.60;46.80;;;;;;5055212;28;20021;-63
2023/07/19 11:53:01;;;;;;;14.55;9.02;;;34.60;47.30;;;;;;5055694;28;20025;-62
2023/07/19 11:55:29;;;;;;;15.98;8.43;;;34.60;47.60;;;;;;5054993;28;20090;-62
2023/07/19 11:58:02;;;;;;;15.07;9.30;;;34.60;47.20;;;;;;5055334;28;20508;-63
2023/07/19 12:00:30;;;;;;;13.25;8.63;;;34.60;47.10;;;;;;5054490;28;20078;-62
2023/07/19 12:02:56;;;;;;;12.82;8.30;;;34.60;47.00;;;;;;5055306;28;20025;-62
2023/07/19 12:05:27;;;;;;;14.02;9.20;;;34.50;47.00;;;;;;5055198;28;20025;-62
2023/07/19 12:07:54;;;;;;;11.32;8.23;;;34.60;47.20;;;;;;5054647;28;20182;-62
2023/07/19 12:10:22;;;;;;;11.60;8.18;;;34.50;47.30;;;;;;5055209;28;20115;-62
2023/07/19 12:12:49;;;;;;;10.38;8.05;;;34.60;47.10;;;;;;5053959;28;20111;-62
2023/07/19 12:15:17;;;;;;;12.63;8.85;;;34.60;47.00;;;;;;5037493;28;20028;-62
2023/07/19 12:17:45;;;;;;;11.25;8.32;;;34.50;47.40;;;;;;5054876;28;20029;-62
2023/07/19 12:20:13;;;;;;;14.80;9.00;;;34.40;47.30;;;;;;5053972;28;20083;-62
2023/07/19 12:22:42;;;;;;;11.55;8.43;;;34.40;47.40;;;;;;5055315;28;20032;-63
2023/07/19 12:25:11;;;;;;;15.23;8.77;;;34.30;47.70;;;;;;5055322;28;20032;-62
2023/07/19 12:27:38;;;;;;;14.90;8.32;;;34.30;47.50;;;;;;5053871;28;20024;-62
2023/07/19 12:30:05;;;;;;;11.90;8.00;;;34.30;47.90;;;;;;5055050;28;20025;-63
2023/07/19 12:32:32;;;;;;;15.50;8.43;;;34.40;48.20;;;;;;5054761;28;20094;-62
2023/07/19 12:34:58;;;;;;;12.45;8.25;;;34.40;47.70;;;;;;5054585;28;20025;-62
2023/07/19 12:37:24;;;;;;;14.48;9.23;;;34.50;47.80;;;;;;5052921;28;20051;-63
2023/07/19 12:39:50;;;;;;;12.25;8.55;;;34.50;47.40;;;;;;5056638;28;20067;-63
2023/07/19 12:42:16;;;;;;;14.43;7.85;;;34.50;47.80;;;;;;5058058;28;20040;-63
2023/07/19 12:44:42;;;;;;;10.80;7.68;;;34.50;47.70;;;;;;5057807;28;20035;-62
2023/07/19 12:47:08;;;;;;;12.15;8.27;;;34.50;47.60;;;;;;5057839;28;20033;-62